createdAt,value
2017-05-21T00:00:39.846Z,21.28
2017-05-21T00:03:08.779Z,21.18
2017-05-21T00:05:37.729Z,20.38
2017-05-21T00:08:06.700Z,21.27
2017-05-21T00:10:35.647Z,22.17
2017-05-21T00:13:04.571Z,20.80
2017-05-21T00:15:33.531Z,18.92
2017-05-21T00:18:02.473Z,21.45
2017-05-21T00:20:31.451Z,21.15
2017-05-21T00:23:00.408Z,19.20
2017-05-21T00:25:29.337Z,18.52
2017-05-21T00:27:58.267Z,20.47
2017-05-21T00:30:27.232Z,20.03
2017-05-21T00:32:56.163Z,18.95
2017-05-21T00:35:25.095Z,20.77
2017-05-21T00:37:54.047Z,20.20
2017-05-21T00:40:22.973Z,19.38
2017-05-21T00:42:51.898Z,20.32
2017-05-21T00:45:20.861Z,19.70
2017-05-21T00:47:49.804Z,20.12
2017-05-21T00:50:18.730Z,18.55
2017-05-21T00:52:47.690Z,19.62
2017-05-21T00:55:16.632Z,21.07
2017-05-21T00:57:45.581Z,19.93
2017-05-21T01:00:14.543Z,20.48
2017-05-21T01:02:43.489Z,20.55
2017-05-21T01:05:12.417Z,20.63
2017-05-21T01:07:41.378Z,20.15
2017-05-21T01:10:10.302Z,21.15
2017-05-21T01:12:39.249Z,22.53
2017-05-21T01:15:08.225Z,20.20
2017-05-21T01:17:37.157Z,20.28
2017-05-21T01:20:06.102Z,21.57
2017-05-21T01:22:35.498Z,19.55
2017-05-21T01:25:04.445Z,21.05
2017-05-21T01:27:33.370Z,20.57
2017-05-21T01:30:02.327Z,20.73
2017-05-21T01:32:31.251Z,20.40
2017-05-21T01:35:00.194Z,20.97
2017-05-21T01:37:29.165Z,19.80
2017-05-21T01:39:58.109Z,20.33
2017-05-21T01:42:27.042Z,20.47
2017-05-21T01:44:56.018Z,19.32
2017-05-21T01:47:24.947Z,22.78
2017-05-21T01:49:53.898Z,20.48
2017-05-21T01:52:22.862Z,20.12
2017-05-21T01:54:51.815Z,20.42
2017-05-21T01:57:20.762Z,20.78
2017-05-21T01:59:49.748Z,21.43
2017-05-21T02:02:18.696Z,21.65
2017-05-21T02:04:47.647Z,19.73
2017-05-21T02:07:16.625Z,20.85
2017-05-21T02:09:45.559Z,22.45
2017-05-21T02:12:14.511Z,21.97
2017-05-21T02:14:43.468Z,22.38
2017-05-21T02:17:12.400Z,21.78
2017-05-21T02:19:41.340Z,23.52
2017-05-21T02:22:10.402Z,23.02
2017-05-21T02:24:39.345Z,22.83
2017-05-21T02:27:08.292Z,23.67
2017-05-21T02:29:37.261Z,23.20
2017-05-21T02:32:06.189Z,24.55
2017-05-21T02:34:35.134Z,23.28
2017-05-21T02:37:04.091Z,21.92
2017-05-21T02:39:33.017Z,22.77
2017-05-21T02:42:01.961Z,21.72
2017-05-21T02:44:30.909Z,22.27
2017-05-21T02:46:59.854Z,21.60
2017-05-21T02:49:28.789Z,26.00
2017-05-21T02:51:57.738Z,23.50
2017-05-21T02:54:26.681Z,24.35
2017-05-21T02:56:55.623Z,24.00
2017-05-21T02:59:24.591Z,23.32
2017-05-21T03:01:53.514Z,23.98
2017-05-21T03:04:22.443Z,27.25
2017-05-21T03:06:51.421Z,25.78
2017-05-21T03:09:20.383Z,25.82
2017-05-21T03:11:49.310Z,26.17
2017-05-21T03:14:18.275Z,26.60
2017-05-21T03:16:47.233Z,26.80
2017-05-21T03:19:16.159Z,30.37
2017-05-21T03:21:45.133Z,29.25
2017-05-21T03:24:14.067Z,26.37
2017-05-21T03:26:43.014Z,30.03
2017-05-21T03:29:11.990Z,27.62
2017-05-21T03:31:40.941Z,27.22
2017-05-21T03:34:09.887Z,27.50
2017-05-21T03:36:38.845Z,28.23
2017-05-21T03:39:07.775Z,28.23
2017-05-21T03:41:36.716Z,25.12
2017-05-21T03:44:05.670Z,25.28
2017-05-21T03:46:34.604Z,25.47
2017-05-21T03:49:03.525Z,24.37
2017-05-21T03:51:32.479Z,24.88
2017-05-21T03:54:01.423Z,24.97
2017-05-21T03:56:30.362Z,24.98
2017-05-21T03:58:59.324Z,23.02
2017-05-21T04:01:28.270Z,25.42
2017-05-21T04:03:57.210Z,24.92
2017-05-21T04:06:26.167Z,27.02
2017-05-21T04:08:55.114Z,27.83
2017-05-21T04:11:24.043Z,26.62
2017-05-21T04:13:52.998Z,26.12
2017-05-21T04:16:21.937Z,24.42
2017-05-21T04:18:50.865Z,27.93
2017-05-21T04:21:19.823Z,27.60
2017-05-21T04:23:48.788Z,28.87
2017-05-21T04:26:17.713Z,26.68
2017-05-21T04:28:46.666Z,28.57
2017-05-21T04:31:15.614Z,33.70
2017-05-21T04:33:44.568Z,30.18
2017-05-21T04:36:13.537Z,27.70
2017-05-21T04:38:42.462Z,27.82
2017-05-21T04:41:11.385Z,29.15
2017-05-21T04:43:40.364Z,26.70
2017-05-21T04:46:09.291Z,24.87
2017-05-21T04:48:38.260Z,25.50
2017-05-21T04:51:07.242Z,22.93
2017-05-21T04:53:36.182Z,23.75
2017-05-21T04:56:05.125Z,24.97
2017-05-21T04:58:34.114Z,25.43
2017-05-21T05:01:03.052Z,24.97
2017-05-21T05:03:32.004Z,26.08
2017-05-21T05:06:00.977Z,26.68
2017-05-21T05:08:29.928Z,26.18
2017-05-21T05:10:58.853Z,26.77
2017-05-21T05:13:27.817Z,27.80
2017-05-21T05:15:56.766Z,26.70
2017-05-21T05:18:25.718Z,27.97
2017-05-21T05:20:54.692Z,29.40
2017-05-21T05:23:23.623Z,28.83
2017-05-21T05:25:52.578Z,31.17
2017-05-21T05:28:21.538Z,31.22
2017-05-21T05:30:50.490Z,33.33
2017-05-21T05:33:19.419Z,32.03
2017-05-21T05:35:48.388Z,32.27
2017-05-21T05:38:17.343Z,31.13
2017-05-21T05:40:46.297Z,30.65
2017-05-21T05:43:15.250Z,32.58
2017-05-21T05:45:44.181Z,31.82
2017-05-21T05:48:13.114Z,31.80
2017-05-21T05:50:42.095Z,32.80
2017-05-21T05:53:11.042Z,34.15
2017-05-21T05:55:39.970Z,35.60
2017-05-21T05:58:08.925Z,33.80
2017-05-21T06:00:37.872Z,32.52
2017-05-21T06:03:06.817Z,33.93
2017-05-21T06:05:35.788Z,34.15
2017-05-21T06:08:04.737Z,36.58
2017-05-21T06:10:33.701Z,34.72
2017-05-21T06:13:02.658Z,33.22
2017-05-21T06:15:31.601Z,33.40
2017-05-21T06:18:00.545Z,34.08
2017-05-21T06:20:29.519Z,36.15
2017-05-21T06:22:58.915Z,31.28
2017-05-21T06:25:27.838Z,31.87
2017-05-21T06:27:56.798Z,34.53
2017-05-21T06:30:25.726Z,32.75
2017-05-21T06:32:54.650Z,29.62
2017-05-21T06:35:23.611Z,30.78
2017-05-21T06:37:52.557Z,28.07
2017-05-21T06:40:21.485Z,26.13
2017-05-21T06:42:50.466Z,25.60
2017-05-21T06:45:19.408Z,24.80
2017-05-21T06:47:48.336Z,22.12
2017-05-21T06:50:17.289Z,21.73
2017-05-21T06:52:46.213Z,20.28
2017-05-21T06:55:15.156Z,20.03
2017-05-21T06:57:44.110Z,19.68
2017-05-21T07:00:13.052Z,19.83
2017-05-21T07:02:41.983Z,17.97
2017-05-21T07:05:10.938Z,17.55
2017-05-21T07:07:39.886Z,16.70
2017-05-21T07:10:08.827Z,18.05
2017-05-21T07:12:37.809Z,15.72
2017-05-21T07:15:06.756Z,16.15
2017-05-21T07:17:35.707Z,15.73
2017-05-21T07:20:04.672Z,15.00
2017-05-21T07:22:33.612Z,18.22
2017-05-21T07:25:02.556Z,15.35
2017-05-21T07:27:31.515Z,17.18
2017-05-21T07:30:00.456Z,16.88
2017-05-21T07:32:29.404Z,14.77
2017-05-21T07:34:58.376Z,13.52
2017-05-21T07:37:27.301Z,14.63
2017-05-21T07:39:56.227Z,16.32
2017-05-21T07:42:25.217Z,14.07
2017-05-21T07:44:54.169Z,14.62
2017-05-21T07:47:23.101Z,13.15
2017-05-21T07:49:52.060Z,12.82
2017-05-21T07:52:21.011Z,12.15
2017-05-21T07:54:49.943Z,11.25
2017-05-21T07:57:18.898Z,13.02
2017-05-21T07:59:48.042Z,11.43
2017-05-21T08:02:16.987Z,13.30
2017-05-21T08:04:46.039Z,11.55
2017-05-21T08:07:15.000Z,10.95
2017-05-21T08:09:43.935Z,11.47
2017-05-21T08:12:12.913Z,11.56
2017-05-21T08:14:41.850Z,10.30
2017-05-21T08:17:10.780Z,9.78
2017-05-21T08:19:39.751Z,10.48
2017-05-21T08:22:08.747Z,9.64
2017-05-21T08:24:37.693Z,9.16
2017-05-21T08:27:06.657Z,8.34
2017-05-21T08:29:35.599Z,7.80
2017-05-21T08:32:04.549Z,8.02
2017-05-21T08:34:33.524Z,8.08
2017-05-21T08:37:02.469Z,6.16
2017-05-21T08:39:31.405Z,7.72
2017-05-21T08:42:00.354Z,8.68
2017-05-21T08:44:29.279Z,6.68
2017-05-21T08:46:58.225Z,7.18
2017-05-21T08:49:27.197Z,7.36
2017-05-21T08:51:56.156Z,6.66
2017-05-21T08:54:25.767Z,6.50
2017-05-21T08:56:56.427Z,5.90
2017-05-21T08:59:26.051Z,7.86
2017-05-21T09:01:55.660Z,7.64
2017-05-21T09:04:25.282Z,6.00
2017-05-21T09:06:54.894Z,6.04
2017-05-21T09:09:24.517Z,6.48
2017-05-21T09:11:55.423Z,7.66
2017-05-21T09:14:25.023Z,6.04
2017-05-21T09:16:55.526Z,6.76
2017-05-21T09:19:24.443Z,5.40
2017-05-21T09:21:53.358Z,4.14
2017-05-21T09:24:22.316Z,4.48
2017-05-21T09:26:51.233Z,4.00
2017-05-21T09:29:20.151Z,3.38
2017-05-21T09:31:49.127Z,4.10
2017-05-21T09:34:18.065Z,4.30
2017-05-21T09:36:46.983Z,3.18
2017-05-21T09:39:15.935Z,4.04
2017-05-21T09:41:44.862Z,3.54
2017-05-21T09:44:13.806Z,4.42
2017-05-21T09:46:42.759Z,4.76
2017-05-21T09:49:11.692Z,4.00
2017-05-21T09:51:40.644Z,3.84
2017-05-21T09:54:09.606Z,3.30
2017-05-21T09:56:38.521Z,3.70
2017-05-21T09:59:07.439Z,3.74
2017-05-21T10:01:36.390Z,3.10
2017-05-21T10:04:05.340Z,3.34
2017-05-21T10:06:34.277Z,3.28
2017-05-21T10:09:03.231Z,3.74
2017-05-21T10:11:32.150Z,3.20
2017-05-21T10:14:01.088Z,2.96
2017-05-21T10:16:30.044Z,2.32
2017-05-21T10:18:58.971Z,2.48
2017-05-21T10:21:27.918Z,1.88
2017-05-21T10:23:56.870Z,2.44
2017-05-21T10:26:25.914Z,2.26
2017-05-21T10:28:54.835Z,2.98
2017-05-21T10:31:23.800Z,2.30
2017-05-21T10:33:52.721Z,2.28
2017-05-21T10:36:21.656Z,2.82
2017-05-21T10:38:50.610Z,2.92
2017-05-21T10:41:19.545Z,3.00
2017-05-21T10:43:48.484Z,2.88
2017-05-21T10:46:17.460Z,3.06
2017-05-21T10:48:46.405Z,2.46
2017-05-21T10:51:15.336Z,2.00
2017-05-21T10:53:44.306Z,2.52
2017-05-21T10:56:13.230Z,2.74
2017-05-21T10:58:42.182Z,2.40
2017-05-21T11:01:11.159Z,2.50
2017-05-21T11:03:40.109Z,3.16
2017-05-21T11:06:09.027Z,2.56
2017-05-21T11:08:37.993Z,3.42
2017-05-21T11:11:06.935Z,2.32
2017-05-21T11:13:35.856Z,2.12
2017-05-21T11:16:04.815Z,2.38
2017-05-21T11:18:33.757Z,2.14
2017-05-21T11:21:02.675Z,2.50
2017-05-21T11:23:31.623Z,2.10
2017-05-21T11:26:00.562Z,3.02
2017-05-21T11:28:29.482Z,2.74
2017-05-21T11:30:58.453Z,2.26
2017-05-21T11:33:27.370Z,3.02
2017-05-21T11:35:56.296Z,3.02
2017-05-21T11:38:25.271Z,3.70
2017-05-21T11:40:54.189Z,3.78
2017-05-21T11:43:23.134Z,3.14
2017-05-21T11:45:52.083Z,3.38
2017-05-21T11:48:21.013Z,3.68
2017-05-21T11:50:49.963Z,4.12
2017-05-21T11:53:18.954Z,3.72
2017-05-21T11:55:47.879Z,3.84
2017-05-21T11:58:16.811Z,6.03
2017-05-21T12:00:45.770Z,3.60
2017-05-21T12:03:14.720Z,4.85
2017-05-21T12:05:43.653Z,6.27
2017-05-21T12:08:12.615Z,7.03
2017-05-21T12:10:41.561Z,3.42
2017-05-21T12:13:10.487Z,3.07
2017-05-21T12:15:39.445Z,3.20
2017-05-21T12:18:08.372Z,2.60
2017-05-21T12:20:37.326Z,2.50
2017-05-21T12:23:06.284Z,3.02
2017-05-21T12:25:35.229Z,2.72
2017-05-21T12:28:04.164Z,2.75
2017-05-21T12:30:33.139Z,3.00
2017-05-21T12:33:02.070Z,3.45
2017-05-21T12:35:30.991Z,2.88
2017-05-21T12:37:59.963Z,2.70
2017-05-21T12:40:28.896Z,2.52
2017-05-21T12:42:57.851Z,2.68
2017-05-21T12:45:26.833Z,2.40
2017-05-21T12:47:55.777Z,2.78
2017-05-21T12:50:24.725Z,2.72
2017-05-21T12:52:53.705Z,2.72
2017-05-21T12:55:22.650Z,2.88
2017-05-21T12:57:51.585Z,2.90
2017-05-21T13:00:20.548Z,3.12
2017-05-21T13:02:49.476Z,2.40
2017-05-21T13:05:18.420Z,2.10
2017-05-21T13:07:47.375Z,2.20
2017-05-21T13:10:16.303Z,2.23
2017-05-21T13:12:45.231Z,2.30
2017-05-21T13:15:14.203Z,2.67
2017-05-21T13:17:43.166Z,2.50
2017-05-21T13:20:12.090Z,2.38
2017-05-21T13:22:41.057Z,2.80
2017-05-21T13:25:09.979Z,2.42
2017-05-21T13:27:38.934Z,2.70
2017-05-21T13:30:07.911Z,2.83
2017-05-21T13:32:36.857Z,2.98
2017-05-21T13:35:05.782Z,3.27
2017-05-21T13:37:34.753Z,2.35
2017-05-21T13:40:03.701Z,2.68
2017-05-21T13:42:32.644Z,2.55
2017-05-21T13:45:01.607Z,5.28
2017-05-21T13:47:30.531Z,4.47
2017-05-21T13:49:59.477Z,3.15
2017-05-21T13:52:28.849Z,2.48
2017-05-21T13:54:57.779Z,3.40
2017-05-21T13:57:26.709Z,14.23
2017-05-21T13:59:55.675Z,3.33
2017-05-21T14:02:24.621Z,2.73
2017-05-21T14:04:53.580Z,3.77
2017-05-21T14:07:22.555Z,3.70
2017-05-21T14:09:51.502Z,2.75
2017-05-21T14:12:20.454Z,3.50
2017-05-21T14:14:49.401Z,2.90
2017-05-21T14:17:18.339Z,2.60
2017-05-21T14:19:47.295Z,3.18
2017-05-21T14:22:16.662Z,3.00
2017-05-21T14:24:45.587Z,3.72
2017-05-21T14:27:14.509Z,3.15
2017-05-21T14:29:43.515Z,4.63
2017-05-21T14:32:12.440Z,3.38
2017-05-21T14:34:41.365Z,2.62
2017-05-21T14:37:10.313Z,3.30
2017-05-21T14:39:39.243Z,2.98
2017-05-21T14:42:08.185Z,6.17
2017-05-21T14:44:37.194Z,7.28
2017-05-21T14:47:06.143Z,3.57
2017-05-21T14:49:35.528Z,3.32
2017-05-21T14:52:04.505Z,3.50
2017-05-21T14:54:33.528Z,2.63
2017-05-21T14:57:02.549Z,2.50
2017-05-21T14:59:31.523Z,3.80
2017-05-21T15:02:00.446Z,2.60
2017-05-21T15:04:29.385Z,3.05
2017-05-21T15:06:58.357Z,4.48
2017-05-21T15:09:27.312Z,2.80
2017-05-21T15:11:56.333Z,3.90
2017-05-21T15:14:25.309Z,5.48
2017-05-21T15:16:54.243Z,3.40
2017-05-21T15:19:23.175Z,6.37
2017-05-21T15:21:52.141Z,3.45
2017-05-21T15:24:21.084Z,3.15
2017-05-21T15:26:50.017Z,5.97
2017-05-21T15:29:18.990Z,3.93
2017-05-21T15:31:47.932Z,3.45
2017-05-21T15:34:16.887Z,6.68
2017-05-21T15:36:45.850Z,3.52
2017-05-21T15:39:14.783Z,3.23
2017-05-21T15:41:43.715Z,3.02
2017-05-21T15:44:12.713Z,3.52
2017-05-21T15:46:41.637Z,5.43
2017-05-21T15:49:10.585Z,5.33
2017-05-21T15:51:39.558Z,7.85
2017-05-21T15:54:08.500Z,3.62
2017-05-21T15:56:37.422Z,3.15
2017-05-21T15:59:06.395Z,2.77
2017-05-21T16:01:35.332Z,3.25
2017-05-21T16:04:04.274Z,3.13
2017-05-21T16:06:33.225Z,3.43
2017-05-21T16:09:02.168Z,2.97
2017-05-21T16:11:31.095Z,3.18
2017-05-21T16:14:00.042Z,5.03
2017-05-21T16:16:28.973Z,3.20
2017-05-21T16:18:57.897Z,6.87
2017-05-21T16:21:26.862Z,4.77
2017-05-21T16:23:55.805Z,4.67
2017-05-21T16:26:24.731Z,3.28
2017-05-21T16:28:53.674Z,4.92
2017-05-21T16:31:22.610Z,6.13
2017-05-21T16:33:51.543Z,4.32
2017-05-21T16:36:20.498Z,6.38
2017-05-21T16:38:49.439Z,3.70
2017-05-21T16:41:18.390Z,6.00
2017-05-21T16:43:47.337Z,3.98
2017-05-21T16:46:16.281Z,4.60
2017-05-21T16:48:45.201Z,4.37
2017-05-21T16:51:14.177Z,9.12
2017-05-21T16:53:43.106Z,12.87
2017-05-21T16:56:12.051Z,5.23
2017-05-21T16:58:41.006Z,11.40
2017-05-21T17:01:09.950Z,4.08
2017-05-21T17:03:38.902Z,6.20
2017-05-21T17:06:07.855Z,5.43
2017-05-21T17:08:36.801Z,4.52
2017-05-21T17:11:05.753Z,8.22
2017-05-21T17:13:34.710Z,4.38
2017-05-21T17:16:03.647Z,4.40
2017-05-21T17:18:32.567Z,3.28
2017-05-21T17:21:01.520Z,3.48
2017-05-21T17:23:30.455Z,4.05
2017-05-21T17:25:59.378Z,4.63
2017-05-21T17:31:06.631Z,4.98
2017-05-21T17:33:35.593Z,4.78
2017-05-21T17:36:04.536Z,5.42
2017-05-21T17:38:33.458Z,5.72
2017-05-21T17:41:02.428Z,10.20
2017-05-21T17:43:31.347Z,7.20
2017-05-21T17:46:00.347Z,6.20
2017-05-21T17:48:29.301Z,7.00
2017-05-21T17:50:58.246Z,5.35
2017-05-21T17:53:27.175Z,5.32
2017-05-21T17:55:56.114Z,5.67
2017-05-21T17:58:25.043Z,4.45
2017-05-21T18:00:53.962Z,4.20
2017-05-21T18:03:22.930Z,4.88
2017-05-21T18:05:51.855Z,5.08
2017-05-21T18:08:20.801Z,5.75
2017-05-21T18:10:49.777Z,4.95
2017-05-21T18:13:18.714Z,4.50
2017-05-21T18:15:47.662Z,4.63
2017-05-21T18:18:16.640Z,4.72
2017-05-21T18:20:45.584Z,4.27
2017-05-21T18:23:14.517Z,5.08
2017-05-21T18:25:43.518Z,7.08
2017-05-21T18:28:12.486Z,19.20
2017-05-21T18:30:41.437Z,10.22
2017-05-21T18:33:10.383Z,5.50
2017-05-21T18:35:39.334Z,10.22
2017-05-21T18:38:09.073Z,4.78
2017-05-21T18:40:38.044Z,4.80
2017-05-21T18:43:06.965Z,5.12
2017-05-21T18:45:35.909Z,6.02
2017-05-21T18:48:04.867Z,6.25
2017-05-21T18:50:33.797Z,5.85
2017-05-21T18:53:02.746Z,4.97
2017-05-21T18:55:32.146Z,10.70
2017-05-21T18:58:01.069Z,5.77
2017-05-21T19:00:30.004Z,8.53
2017-05-21T19:02:58.973Z,5.03
2017-05-21T19:05:27.918Z,6.35
2017-05-21T19:07:56.866Z,5.48
2017-05-21T19:10:25.840Z,7.15
2017-05-21T19:12:54.794Z,6.12
2017-05-21T19:15:23.735Z,5.53
2017-05-21T19:17:52.708Z,5.80
2017-05-21T19:20:21.652Z,5.12
2017-05-21T19:22:50.570Z,6.77
2017-05-21T19:25:19.519Z,5.00
2017-05-21T19:27:48.541Z,6.53
2017-05-21T19:30:17.481Z,7.65
2017-05-21T19:32:46.969Z,11.08
2017-05-21T19:35:15.913Z,6.32
2017-05-21T19:37:44.854Z,6.20
2017-05-21T19:40:13.832Z,5.97
2017-05-21T19:42:42.782Z,7.43
2017-05-21T19:45:11.724Z,4.55
2017-05-21T19:47:40.691Z,6.25
2017-05-21T19:50:09.632Z,5.80
2017-05-21T19:52:38.558Z,5.12
2017-05-21T19:55:07.515Z,5.53
2017-05-21T19:57:36.524Z,5.28
2017-05-21T20:00:05.442Z,5.50
2017-05-21T20:02:34.420Z,7.15
2017-05-21T20:05:03.369Z,12.13
2017-05-21T20:07:32.317Z,12.20
2017-05-21T20:10:01.292Z,7.25
2017-05-21T20:12:30.237Z,6.48
2017-05-21T20:14:59.179Z,7.63
2017-05-21T20:17:28.145Z,7.58
2017-05-21T20:19:57.071Z,7.52
2017-05-21T20:22:26.017Z,5.88
2017-05-21T20:24:55.045Z,6.25
2017-05-21T20:27:23.998Z,7.27
2017-05-21T20:29:52.917Z,6.55
2017-05-21T20:32:21.868Z,6.55
2017-05-21T20:34:50.791Z,6.87
2017-05-21T20:37:19.725Z,6.58
2017-05-21T20:39:48.696Z,6.02
2017-05-21T20:42:17.633Z,6.62
2017-05-21T20:44:46.577Z,5.78
2017-05-21T20:47:15.549Z,6.80
2017-05-21T20:49:44.469Z,6.10
2017-05-21T20:52:13.387Z,6.52
2017-05-21T20:54:42.352Z,7.10
2017-05-21T20:57:11.284Z,6.88
2017-05-21T20:59:40.225Z,6.73
2017-05-21T21:02:09.194Z,6.73
2017-05-21T21:04:38.142Z,6.82
2017-05-21T21:07:07.087Z,6.07
2017-05-21T21:09:36.041Z,7.43
2017-05-21T21:12:04.959Z,7.38
2017-05-21T21:14:33.884Z,8.55
2017-05-21T21:17:02.833Z,7.88
2017-05-21T21:19:31.808Z,7.32
2017-05-21T21:22:00.741Z,7.65
2017-05-21T21:24:29.687Z,7.80
2017-05-21T21:26:58.636Z,8.00
2017-05-21T21:29:27.580Z,7.53
2017-05-21T21:31:56.532Z,8.88
2017-05-21T21:34:25.450Z,8.62
2017-05-21T21:36:54.393Z,8.48
2017-05-21T21:39:23.356Z,7.30
2017-05-21T21:41:52.281Z,7.33
2017-05-21T21:44:21.217Z,7.83
2017-05-21T21:46:50.281Z,7.53
2017-05-21T21:49:19.223Z,9.15
2017-05-21T21:51:48.174Z,8.95
2017-05-21T21:54:17.119Z,8.25
2017-05-21T21:56:46.046Z,9.13
2017-05-21T21:59:14.988Z,8.70
2017-05-21T22:01:43.937Z,9.73
2017-05-21T22:04:12.892Z,8.85
2017-05-21T22:06:41.836Z,9.05
2017-05-21T22:09:10.827Z,10.52
2017-05-21T22:11:39.754Z,10.40
2017-05-21T22:14:08.682Z,9.93
2017-05-21T22:16:37.652Z,9.22
2017-05-21T22:19:06.626Z,9.50
2017-05-21T22:21:35.562Z,11.30
2017-05-21T22:24:04.523Z,11.27
2017-05-21T22:26:33.465Z,11.27
2017-05-21T22:29:02.398Z,11.13
2017-05-21T22:31:31.380Z,12.47
2017-05-21T22:34:00.317Z,10.48
2017-05-21T22:36:29.251Z,12.02
2017-05-21T22:38:58.233Z,10.02
2017-05-21T22:41:27.166Z,10.90
2017-05-21T22:43:56.103Z,12.32
2017-05-21T22:46:25.082Z,11.32
2017-05-21T22:48:54.008Z,10.75
2017-05-21T22:51:22.938Z,12.55
2017-05-21T22:53:51.908Z,10.02
2017-05-21T22:56:20.842Z,12.05
2017-05-21T22:58:49.775Z,14.63
2017-05-21T23:01:18.746Z,13.40
2017-05-21T23:03:47.682Z,13.62
2017-05-21T23:06:16.638Z,12.97
2017-05-21T23:08:45.622Z,12.27
2017-05-21T23:11:14.555Z,13.30
2017-05-21T23:13:43.509Z,18.93
2017-05-21T23:16:12.505Z,17.25
2017-05-21T23:18:41.448Z,13.87
2017-05-21T23:21:10.378Z,12.63
2017-05-21T23:23:39.330Z,13.17
2017-05-21T23:26:08.289Z,11.72
2017-05-21T23:28:37.225Z,13.98
2017-05-21T23:31:06.264Z,12.27
2017-05-21T23:33:35.198Z,12.05
2017-05-21T23:36:04.152Z,18.90
2017-05-21T23:38:33.116Z,19.80
2017-05-21T23:41:02.069Z,17.62
2017-05-21T23:43:30.996Z,18.42
2017-05-21T23:45:59.981Z,14.90
2017-05-21T23:48:28.937Z,14.08
2017-05-21T23:50:57.877Z,14.03
2017-05-21T23:53:26.843Z,13.00
2017-05-21T23:55:55.782Z,13.35
2017-05-21T23:58:24.737Z,12.50
